• Join FlightAware (Why Join?)
  • Login
  • US Flag 
08:10AM EST


 

Airport Tracker/Info


-or-


 

Live Flight TrackerFlight Track Log ✈ AM214 ✈ 08-May-2013 ✈ YORG / OAG - YSSY / SYD

Flight Track Log - Related Links

Times and Time Zones

All times are in EDT time to prevent confusion due to time zone crossing. See the AM214 flight status page for this flight to view local times or setup timezone preferences in your user account.

Time Position Orientation Groundspeed Altitude Reporting Facility
EDT Latitude Longitude Course Direction KTS MPH feet Rate Location/Type
06:49AM -33.3630 149.0824 200° South 156 180 4,600  Level Aus ATC (RADAR)
06:50AM -33.3857 149.0724 200° South 158 182 5,600 1,680 Climbing Aus ATC (RADAR)
06:50AM -33.3923 149.1013 105° East 156 180 6,600 1,020 Climbing Aus ATC (RADAR)
06:51AM -33.3970 149.1330 104° East 171 197 6,900 900 Climbing FlightAware
06:51AM -33.4050 149.1540 115° Southeast 173 199 7,600 1,620 Climbing FlightAware
06:52AM -33.4190 149.1760 127° Southeast 174 200 8,400 2,220 Climbing FlightAware
06:52AM -33.4341 149.1949 127° Southeast 178 205 9,500 1,560 Climbing Aus ATC (RADAR)
06:52AM -33.4370 149.1990 127° Southeast 183 211 9,200 1,680 Descending FlightAware
06:53AM -33.4493 149.2128 127° Southeast 183 211 10,200 1,680 Climbing Aus ATC (RADAR)
06:53AM -33.4520 149.2160 127° Southeast 180 207 9,900 1,680 Descending FlightAware
06:53AM -33.4697 149.2374 127° Southeast 181 208 11,200 1,800 Climbing Aus ATC (RADAR)
06:53AM -33.4760 149.2470 127° Southeast 180 207 11,100 1,680 Descending FlightAware
06:54AM -33.4898 149.2750 127° Southeast 181 208 12,500 1,680 Climbing Aus ATC (RADAR)
06:54AM -33.4950 149.2860 127° Southeast 173 199 12,400 1,680 Descending FlightAware
06:55AM -33.5041 149.3048 127° Southeast 178 205 13,500 1,800 Climbing Aus ATC (RADAR)
06:55AM -33.5110 149.3190 127° Southeast 173 199 13,600 1,680 Climbing FlightAware
06:56AM -33.5334 149.3644 127° Southeast 180 207 15,500 1,380 Climbing Aus ATC (RADAR)
06:56AM -33.5360 149.3700 127° Southeast 193 222 15,000  Descending FlightAware
06:56AM -33.5480 149.3934 127° Southeast 199 229 15,500  Climbing Aus ATC (RADAR)
06:57AM -33.5570 149.4120 127° Southeast 227 261 15,000  Descending FlightAware
06:57AM -33.5747 149.4485 127° Southeast 227 261 15,500  Climbing Aus ATC (RADAR)
06:57AM -33.5790 149.4570 127° Southeast 236 272 15,000  Descending FlightAware
06:57AM -33.5888 149.4776 127° Southeast 236 272 15,500  Climbing Aus ATC (RADAR)
06:58AM -33.5990 149.4980 127° Southeast 241 277 15,000 -480 Descending FlightAware
06:59AM -33.6280 149.5570 121° Southeast 245 282 15,000 300 Level FlightAware
06:59AM -33.6525 149.6082 121° Southeast 246 283 15,500  Climbing Aus ATC (RADAR)
07:00AM -33.6600 149.6230 121° Southeast 247 284 15,000  Descending FlightAware
07:00AM -33.6697 149.6441 121° Southeast 245 282 15,500  Climbing Aus ATC (RADAR)
07:00AM -33.6860 149.6770 121° Southeast 245 282 15,000 -480 Descending FlightAware
07:01AM -33.7090 149.7250 120° Southeast 247 284 15,000  Level FlightAware
07:02AM -33.7300 149.7680 120° Southeast 252 290 15,000 420 Level FlightAware
07:02AM -33.7515 149.8125 120° Southeast 248 285 15,500 480 Climbing Aus ATC (RADAR)
07:03AM -33.7664 149.8428 121° Southeast 249 287 15,500 -780 Level Aus ATC (RADAR)
07:03AM -33.7740 149.8580 121° Southeast 253 291 15,000  Descending FlightAware
07:03AM -33.7867 149.8855 121° Southeast 248 285 15,500  Climbing Aus ATC (RADAR)
07:04AM -33.8000 149.9130 121° Southeast 249 287 15,000  Descending FlightAware
07:04AM -33.8134 149.9402 121° Southeast 248 285 15,500  Climbing Aus ATC (RADAR)
07:04AM -33.8240 149.9630 121° Southeast 254 292 15,000 -540 Descending FlightAware
07:05AM -33.8470 150.0100 121° Southeast 254 292 15,000  Level FlightAware
07:06AM -33.8730 150.0650 120° Southeast 254 292 15,000 360 Level FlightAware
07:06AM -33.8959 150.1113 120° Southeast 249 287 15,500  Climbing Aus ATC (RADAR)
07:06AM -33.8970 150.1150 120° Southeast 254 292 15,000 -600 Descending FlightAware
07:07AM -33.9230 150.1700 120° Southeast 248 285 15,000 420 Level FlightAware
07:07AM -33.9394 150.2025 120° Southeast 246 283 15,500  Climbing Aus ATC (RADAR)
07:08AM -33.9470 150.2190 120° Southeast 247 284 15,000 -600 Descending FlightAware
07:08AM -33.9670 150.2610 120° Southeast 246 283 15,000 720 Level FlightAware
07:08AM -33.9712 150.2691 120° Southeast 246 283 15,500 660 Climbing Aus ATC (RADAR)
07:09AM -33.9941 150.3176 120° Southeast 246 283 15,500 -780 Level Aus ATC (RADAR)
07:09AM -33.9900 150.3090 120° Southeast 252 290 15,000 -1,560 Descending FlightAware
07:10AM -34.0156 150.3616 120° Southeast 255 293 14,600 -1,200 Descending Aus ATC (RADAR)
07:10AM -34.0180 150.3670 120° Southeast 272 313 14,100 -1,380 Descending FlightAware
07:10AM -34.0375 150.4083 120° Southeast 265 305 13,800 -1,620 Descending Aus ATC (RADAR)
07:11AM -34.0480 150.4320 120° Southeast 277 319 12,900 -1,920 Descending FlightAware
07:11AM -34.0740 150.4850 121° Southeast 277 319 11,900 -1,440 Descending FlightAware
07:12AM -34.0810 150.5570 97° East 270 311 10,800 -1,500 Descending FlightAware
07:13AM -34.0720 150.5990 76° East 272 313 9,900 -1,800 Descending FlightAware
07:13AM -34.0600 150.6520 75° East 270 311 8,900 -1,740 Descending FlightAware
07:14AM -34.0530 150.6870 76° East 266 306 8,200 -1,560 Descending FlightAware
07:14AM -34.0430 150.7300 74° East 260 299 7,500 -1,500 Descending FlightAware
07:14AM -34.0390 150.7520 78° East 259 298 7,100 -900 Descending FlightAware
07:15AM -34.0317 150.7844 78° East 248 285 7,000 -1,200 Descending Aus ATC (RADAR)
07:15AM -34.0310 150.7860 78° East 258 297 6,600 -2,040 Descending FlightAware
07:15AM -34.0220 150.8270 75° East 255 293 5,800 -1,380 Descending FlightAware
07:15AM -34.0170 150.8470 73° East 249 287 5,600 360 Descending FlightAware
07:16AM -34.0096 150.8783 73° East 236 272 6,000  Climbing Aus ATC (RADAR)
07:16AM -34.0090 150.8790 73° East 233 268 5,600  Descending FlightAware
07:16AM -34.0108 150.9231 73° East 227 261 6,000  Climbing Aus ATC (RADAR)
07:16AM -34.0100 150.9170 73° East 229 264 5,600 -900 Descending FlightAware
07:17AM -34.0130 150.9490 96° East 226 260 5,600 420 Level FlightAware
07:17AM -34.0175 150.9922 96° East 220 253 6,000  Climbing Aus ATC (RADAR)
07:17AM -34.0170 150.9880 96° East 225 259 5,600 -1,440 Descending FlightAware
07:18AM -34.0190 151.0070 97° East 225 259 5,600  Level FlightAware
07:18AM -34.0240 151.0170 121° Southeast 228 262 5,600  Level FlightAware
07:18AM -34.0370 151.0280 145° Southeast 223 257 5,600 180 Level FlightAware
07:18AM -34.0616 151.0363 145° Southeast 233 268 5,700 -840 Climbing Aus ATC (RADAR)
07:18AM -34.0670 151.0380 145° Southeast 232 267 5,200 -1,680 Descending FlightAware
07:19AM -34.0940 151.0510 158° South 232 267 4,700 -1,200 Descending FlightAware
07:19AM -34.1020 151.0670 121° Southeast 227 261 4,400 -480 Descending FlightAware
07:20AM -34.1101 151.1022 121° Southeast 218 251 4,400 -1,020 Level Aus ATC (RADAR)
07:20AM -34.1100 151.1040 121° Southeast 222 255 3,900 -2,040 Descending FlightAware
07:20AM -34.1150 151.1220 109° East 221 254 3,700 -900 Descending FlightAware
07:20AM -34.1200 151.1530 101° East 222 255 3,300 -900 Descending FlightAware
07:21AM -34.1127 151.1861 101° East 210 242 3,000 -1,620 Descending Aus ATC (RADAR)
07:21AM -34.1120 151.1870 101° East 212 244 2,500 -2,760 Descending FlightAware
07:21AM -34.1000 151.1970 35° Northeast 207 238 2,000 -1,200 Descending FlightAware
07:21AM -34.0860 151.2030 20° North 176 203 1,800 -480 Descending FlightAware
07:22AM -34.0600 151.2040 North 145 167 1,600 -600 Descending FlightAware
07:22AM -34.0410 151.2010 353° North 147 169 1,200 -480 Descending FlightAware
07:23AM -34.0187 151.1947 353° North 149 171 1,200 -840 Level Aus ATC (RADAR)
07:23AM -34.0200 151.1950 353° North 135 155 800 -1,500 Descending FlightAware
07:23AM -34.0010 151.1900 348° North 136 157 400 -660 Descending FlightAware
07:24AM -33.9860 151.1860 348° North 118 136 200  Descending FlightAware
07:24AM -33.9756 151.1837 348° North 111 128 400 -120 Climbing Aus ATC (RADAR)
07:24AM -33.9720 151.1830 348° North 100 115 -540 Descending FlightAware
07:25AM -33.9601 151.1796 348° North 98 113 100 240 Climbing Aus ATC (RADAR)
07:25AM -33.9620 151.1800 348° North 88 101 -3,000 Descending FlightAware
07:25AM -33.9510 151.1770 347° North 63 72  Level FlightAware
07:26AM -33.9440 151.1770 360° North 26 30  Level FlightAware